sensor_id;sensor_type;location;lat;lon;timestamp;P1;durP1;ratioP1;P2;durP2;ratioP2
76867;SDS011;66168;45.478;11.060;2024-01-10T00:04:29;10.90;;;6.20;;
76867;SDS011;66168;45.478;11.060;2024-01-10T00:06:56;9.30;;;5.00;;
76867;SDS011;66168;45.478;11.060;2024-01-10T00:09:23;8.40;;;5.50;;
76867;SDS011;66168;45.478;11.060;2024-01-10T00:11:50;9.00;;;5.40;;
76867;SDS011;66168;45.478;11.060;2024-01-10T00:14:17;6.50;;;4.30;;
76867;SDS011;66168;45.478;11.060;2024-01-10T00:16:44;7.80;;;5.60;;
76867;SDS011;66168;45.478;11.060;2024-01-10T00:19:11;8.40;;;5.30;;
76867;SDS011;66168;45.478;11.060;2024-01-10T00:21:37;5.50;;;3.80;;
76867;SDS011;66168;45.478;11.060;2024-01-10T00:24:04;10.40;;;6.60;;
76867;SDS011;66168;45.478;11.060;2024-01-10T00:26:32;8.40;;;5.60;;
76867;SDS011;66168;45.478;11.060;2024-01-10T00:28:59;9.80;;;5.00;;
76867;SDS011;66168;45.478;11.060;2024-01-10T00:31:30;8.10;;;5.70;;
76867;SDS011;66168;45.478;11.060;2024-01-10T00:33:58;9.30;;;5.60;;
76867;SDS011;66168;45.478;11.060;2024-01-10T00:36:26;8.50;;;5.40;;
76867;SDS011;66168;45.478;11.060;2024-01-10T00:38:53;12.10;;;6.30;;
76867;SDS011;66168;45.478;11.060;2024-01-10T00:41:20;7.30;;;5.30;;
76867;SDS011;66168;45.478;11.060;2024-01-10T00:43:47;8.80;;;5.50;;
76867;SDS011;66168;45.478;11.060;2024-01-10T00:46:13;7.20;;;4.40;;
76867;SDS011;66168;45.478;11.060;2024-01-10T00:48:41;9.00;;;5.40;;
76867;SDS011;66168;45.478;11.060;2024-01-10T00:51:08;7.80;;;5.40;;
76867;SDS011;66168;45.478;11.060;2024-01-10T00:53:36;8.70;;;4.80;;
76867;SDS011;66168;45.478;11.060;2024-01-10T00:56:08;6.40;;;4.40;;
76867;SDS011;66168;45.478;11.060;2024-01-10T00:58:36;8.20;;;5.00;;
76867;SDS011;66168;45.478;11.060;2024-01-10T01:01:02;6.80;;;4.60;;
76867;SDS011;66168;45.478;11.060;2024-01-10T01:03:29;9.20;;;5.60;;
76867;SDS011;66168;45.478;11.060;2024-01-10T01:05:56;6.80;;;4.70;;
76867;SDS011;66168;45.478;11.060;2024-01-10T01:08:24;10.90;;;5.60;;
76867;SDS011;66168;45.478;11.060;2024-01-10T01:10:51;7.00;;;5.00;;
76867;SDS011;66168;45.478;11.060;2024-01-10T01:13:17;9.10;;;5.20;;
76867;SDS011;66168;45.478;11.060;2024-01-10T01:15:44;8.20;;;5.90;;
76867;SDS011;66168;45.478;11.060;2024-01-10T01:18:14;9.60;;;5.40;;
76867;SDS011;66168;45.478;11.060;2024-01-10T01:20:41;9.40;;;5.40;;
76867;SDS011;66168;45.478;11.060;2024-01-10T01:23:11;8.10;;;4.70;;
76867;SDS011;66168;45.478;11.060;2024-01-10T01:25:39;9.20;;;5.30;;
76867;SDS011;66168;45.478;11.060;2024-01-10T01:28:09;8.00;;;4.70;;
76867;SDS011;66168;45.478;11.060;2024-01-10T01:30:39;8.50;;;5.00;;
76867;SDS011;66168;45.478;11.060;2024-01-10T01:33:06;8.50;;;5.30;;
76867;SDS011;66168;45.478;11.060;2024-01-10T01:35:33;7.40;;;5.00;;
76867;SDS011;66168;45.478;11.060;2024-01-10T01:38:01;7.80;;;4.50;;
76867;SDS011;66168;45.478;11.060;2024-01-10T01:40:28;8.30;;;5.00;;
76867;SDS011;66168;45.478;11.060;2024-01-10T01:42:55;9.10;;;4.70;;
76867;SDS011;66168;45.478;11.060;2024-01-10T01:45:21;9.10;;;4.30;;
76867;SDS011;66168;45.478;11.060;2024-01-10T01:47:48;9.70;;;4.60;;
76867;SDS011;66168;45.478;11.060;2024-01-10T01:50:16;7.80;;;5.00;;
76867;SDS011;66168;45.478;11.060;2024-01-10T01:52:43;7.50;;;4.60;;
76867;SDS011;66168;45.478;11.060;2024-01-10T01:55:11;8.30;;;4.70;;
76867;SDS011;66168;45.478;11.060;2024-01-10T01:57:39;8.90;;;4.70;;
76867;SDS011;66168;45.478;11.060;2024-01-10T02:00:06;4.40;;;3.30;;
76867;SDS011;66168;45.478;11.060;2024-01-10T02:02:35;5.50;;;4.20;;
76867;SDS011;66168;45.478;11.060;2024-01-10T02:05:03;8.50;;;4.70;;
76867;SDS011;66168;45.478;11.060;2024-01-10T02:07:30;9.40;;;5.40;;
76867;SDS011;66168;45.478;11.060;2024-01-10T02:09:57;6.60;;;4.70;;
76867;SDS011;66168;45.478;11.060;2024-01-10T02:12:24;8.40;;;5.20;;
76867;SDS011;66168;45.478;11.060;2024-01-10T02:14:51;7.60;;;4.40;;
76867;SDS011;66168;45.478;11.060;2024-01-10T02:17:19;9.00;;;5.10;;
76867;SDS011;66168;45.478;11.060;2024-01-10T02:19:46;8.00;;;5.40;;
76867;SDS011;66168;45.478;11.060;2024-01-10T02:22:13;7.50;;;4.50;;
76867;SDS011;66168;45.478;11.060;2024-01-10T02:24:40;8.80;;;5.10;;
76867;SDS011;66168;45.478;11.060;2024-01-10T02:27:06;7.40;;;4.20;;
76867;SDS011;66168;45.478;11.060;2024-01-10T02:29:34;7.20;;;4.80;;
76867;SDS011;66168;45.478;11.060;2024-01-10T02:32:01;7.10;;;4.30;;
76867;SDS011;66168;45.478;11.060;2024-01-10T02:34:29;7.70;;;4.70;;
76867;SDS011;66168;45.478;11.060;2024-01-10T02:36:56;9.80;;;5.00;;
76867;SDS011;66168;45.478;11.060;2024-01-10T02:39:24;8.60;;;4.80;;
76867;SDS011;66168;45.478;11.060;2024-01-10T02:41:50;8.10;;;4.80;;
76867;SDS011;66168;45.478;11.060;2024-01-10T02:44:17;6.50;;;4.40;;
76867;SDS011;66168;45.478;11.060;2024-01-10T02:46:45;8.20;;;4.90;;
76867;SDS011;66168;45.478;11.060;2024-01-10T02:49:12;6.80;;;4.70;;
76867;SDS011;66168;45.478;11.060;2024-01-10T02:51:39;8.40;;;5.20;;
76867;SDS011;66168;45.478;11.060;2024-01-10T02:54:07;8.00;;;5.40;;
76867;SDS011;66168;45.478;11.060;2024-01-10T02:56:33;9.90;;;6.50;;
76867;SDS011;66168;45.478;11.060;2024-01-10T02:59:00;11.40;;;6.60;;
76867;SDS011;66168;45.478;11.060;2024-01-10T03:01:27;8.30;;;5.50;;
76867;SDS011;66168;45.478;11.060;2024-01-10T03:03:54;7.30;;;4.90;;
76867;SDS011;66168;45.478;11.060;2024-01-10T03:06:21;11.30;;;5.90;;
76867;SDS011;66168;45.478;11.060;2024-01-10T03:08:48;11.90;;;5.80;;
76867;SDS011;66168;45.478;11.060;2024-01-10T03:11:14;10.20;;;6.00;;
76867;SDS011;66168;45.478;11.060;2024-01-10T03:13:43;10.40;;;6.50;;
76867;SDS011;66168;45.478;11.060;2024-01-10T03:16:12;11.40;;;6.20;;
76867;SDS011;66168;45.478;11.060;2024-01-10T03:18:39;9.90;;;5.90;;
76867;SDS011;66168;45.478;11.060;2024-01-10T03:21:06;9.60;;;5.80;;
76867;SDS011;66168;45.478;11.060;2024-01-10T03:23:34;10.90;;;5.80;;
76867;SDS011;66168;45.478;11.060;2024-01-10T03:26:00;10.50;;;5.90;;
76867;SDS011;66168;45.478;11.060;2024-01-10T03:28:27;11.80;;;6.90;;
76867;SDS011;66168;45.478;11.060;2024-01-10T03:30:54;6.90;;;4.10;;
76867;SDS011;66168;45.478;11.060;2024-01-10T03:33:21;4.90;;;4.20;;
76867;SDS011;66168;45.478;11.060;2024-01-10T03:35:48;8.60;;;5.30;;
76867;SDS011;66168;45.478;11.060;2024-01-10T03:38:15;10.60;;;6.60;;
76867;SDS011;66168;45.478;11.060;2024-01-10T03:40:43;8.50;;;5.50;;
76867;SDS011;66168;45.478;11.060;2024-01-10T03:43:10;10.00;;;6.30;;
76867;SDS011;66168;45.478;11.060;2024-01-10T03:45:38;9.70;;;6.20;;
76867;SDS011;66168;45.478;11.060;2024-01-10T03:48:05;9.70;;;6.30;;
76867;SDS011;66168;45.478;11.060;2024-01-10T03:50:33;10.00;;;5.90;;
76867;SDS011;66168;45.478;11.060;2024-01-10T03:53:00;11.20;;;5.80;;
76867;SDS011;66168;45.478;11.060;2024-01-10T03:55:26;7.50;;;4.80;;
76867;SDS011;66168;45.478;11.060;2024-01-10T03:57:53;9.10;;;5.30;;
76867;SDS011;66168;45.478;11.060;2024-01-10T04:00:20;8.20;;;4.90;;
76867;SDS011;66168;45.478;11.060;2024-01-10T04:02:47;9.20;;;5.30;;
76867;SDS011;66168;45.478;11.060;2024-01-10T04:05:18;7.70;;;4.90;;
76867;SDS011;66168;45.478;11.060;2024-01-10T04:07:46;7.20;;;4.30;;
76867;SDS011;66168;45.478;11.060;2024-01-10T04:10:13;8.80;;;4.90;;
76867;SDS011;66168;45.478;11.060;2024-01-10T04:12:41;10.00;;;5.30;;
76867;SDS011;66168;45.478;11.060;2024-01-10T04:15:14;8.20;;;4.70;;
76867;SDS011;66168;45.478;11.060;2024-01-10T04:17:41;7.90;;;4.90;;
76867;SDS011;66168;45.478;11.060;2024-01-10T04:20:09;7.20;;;5.30;;
76867;SDS011;66168;45.478;11.060;2024-01-10T04:22:36;5.20;;;4.20;;
76867;SDS011;66168;45.478;11.060;2024-01-10T04:25:04;7.40;;;5.20;;
76867;SDS011;66168;45.478;11.060;2024-01-10T04:27:33;5.40;;;4.20;;
76867;SDS011;66168;45.478;11.060;2024-01-10T04:30:03;8.70;;;5.30;;
76867;SDS011;66168;45.478;11.060;2024-01-10T04:32:30;6.70;;;4.40;;
76867;SDS011;66168;45.478;11.060;2024-01-10T04:34:57;9.50;;;5.80;;
76867;SDS011;66168;45.478;11.060;2024-01-10T04:37:24;7.40;;;5.50;;
76867;SDS011;66168;45.478;11.060;2024-01-10T04:39:52;11.90;;;6.00;;
76867;SDS011;66168;45.478;11.060;2024-01-10T04:42:19;9.50;;;6.00;;
76867;SDS011;66168;45.478;11.060;2024-01-10T04:44:46;10.00;;;5.40;;
76867;SDS011;66168;45.478;11.060;2024-01-10T04:47:13;9.20;;;4.80;;
76867;SDS011;66168;45.478;11.060;2024-01-10T04:49:40;6.40;;;4.30;;
76867;SDS011;66168;45.478;11.060;2024-01-10T04:52:07;7.40;;;4.40;;
76867;SDS011;66168;45.478;11.060;2024-01-10T04:54:34;9.20;;;5.20;;
76867;SDS011;66168;45.478;11.060;2024-01-10T04:57:00;8.50;;;4.90;;
76867;SDS011;66168;45.478;11.060;2024-01-10T04:59:27;7.40;;;4.20;;
76867;SDS011;66168;45.478;11.060;2024-01-10T05:01:54;9.10;;;4.50;;
76867;SDS011;66168;45.478;11.060;2024-01-10T05:04:21;6.00;;;4.30;;
76867;SDS011;66168;45.478;11.060;2024-01-10T05:06:48;7.40;;;5.00;;
76867;SDS011;66168;45.478;11.060;2024-01-10T05:09:15;9.80;;;6.20;;
76867;SDS011;66168;45.478;11.060;2024-01-10T05:11:42;10.60;;;5.60;;
76867;SDS011;66168;45.478;11.060;2024-01-10T05:14:10;13.70;;;7.20;;
76867;SDS011;66168;45.478;11.060;2024-01-10T05:16:37;17.90;;;8.50;;
76867;SDS011;66168;45.478;11.060;2024-01-10T05:19:04;21.60;;;8.50;;
76867;SDS011;66168;45.478;11.060;2024-01-10T05:21:31;11.30;;;6.10;;
76867;SDS011;66168;45.478;11.060;2024-01-10T05:23:59;10.60;;;5.80;;
76867;SDS011;66168;45.478;11.060;2024-01-10T05:26:26;11.60;;;6.20;;
76867;SDS011;66168;45.478;11.060;2024-01-10T05:28:53;9.40;;;5.50;;
76867;SDS011;66168;45.478;11.060;2024-01-10T05:31:20;10.70;;;5.90;;
76867;SDS011;66168;45.478;11.060;2024-01-10T05:33:46;8.80;;;5.50;;
76867;SDS011;66168;45.478;11.060;2024-01-10T05:36:13;9.00;;;5.50;;
76867;SDS011;66168;45.478;11.060;2024-01-10T05:38:40;10.70;;;6.50;;
76867;SDS011;66168;45.478;11.060;2024-01-10T05:41:08;7.70;;;4.80;;
76867;SDS011;66168;45.478;11.060;2024-01-10T05:43:35;9.70;;;5.60;;
76867;SDS011;66168;45.478;11.060;2024-01-10T05:46:02;11.20;;;6.00;;
76867;SDS011;66168;45.478;11.060;2024-01-10T05:48:31;10.00;;;5.40;;
76867;SDS011;66168;45.478;11.060;2024-01-10T05:50:59;10.50;;;5.20;;
76867;SDS011;66168;45.478;11.060;2024-01-10T05:53:27;7.10;;;4.90;;
76867;SDS011;66168;45.478;11.060;2024-01-10T05:55:55;9.80;;;6.10;;
76867;SDS011;66168;45.478;11.060;2024-01-10T05:58:22;10.00;;;6.00;;
76867;SDS011;66168;45.478;11.060;2024-01-10T06:00:49;9.60;;;6.50;;
76867;SDS011;66168;45.478;11.060;2024-01-10T06:03:15;9.00;;;6.70;;
76867;SDS011;66168;45.478;11.060;2024-01-10T06:05:42;11.30;;;6.50;;
76867;SDS011;66168;45.478;11.060;2024-01-10T06:08:09;10.10;;;6.60;;
76867;SDS011;66168;45.478;11.060;2024-01-10T06:10:36;12.40;;;6.20;;
76867;SDS011;66168;45.478;11.060;2024-01-10T06:13:04;12.80;;;7.20;;
76867;SDS011;66168;45.478;11.060;2024-01-10T06:15:30;12.40;;;6.30;;
76867;SDS011;66168;45.478;11.060;2024-01-10T06:17:57;10.90;;;6.00;;
76867;SDS011;66168;45.478;11.060;2024-01-10T06:20:25;11.20;;;6.80;;
76867;SDS011;66168;45.478;11.060;2024-01-10T06:22:52;11.00;;;6.50;;
76867;SDS011;66168;45.478;11.060;2024-01-10T06:25:19;11.60;;;6.60;;
76867;SDS011;66168;45.478;11.060;2024-01-10T06:27:46;12.70;;;6.70;;
76867;SDS011;66168;45.478;11.060;2024-01-10T06:30:13;12.40;;;6.70;;
76867;SDS011;66168;45.478;11.060;2024-01-10T06:32:40;13.80;;;7.40;;
76867;SDS011;66168;45.478;11.060;2024-01-10T06:35:07;12.30;;;7.20;;
76867;SDS011;66168;45.478;11.060;2024-01-10T06:37:37;12.50;;;6.70;;
76867;SDS011;66168;45.478;11.060;2024-01-10T06:40:04;10.80;;;6.40;;
76867;SDS011;66168;45.478;11.060;2024-01-10T06:42:32;8.90;;;6.00;;
76867;SDS011;66168;45.478;11.060;2024-01-10T06:44:59;11.00;;;6.60;;
76867;SDS011;66168;45.478;11.060;2024-01-10T06:47:26;12.30;;;7.10;;
76867;SDS011;66168;45.478;11.060;2024-01-10T06:49:53;18.00;;;7.50;;
76867;SDS011;66168;45.478;11.060;2024-01-10T06:52:20;12.00;;;7.80;;
76867;SDS011;66168;45.478;11.060;2024-01-10T06:54:47;12.20;;;7.30;;
76867;SDS011;66168;45.478;11.060;2024-01-10T06:57:14;12.30;;;6.70;;
76867;SDS011;66168;45.478;11.060;2024-01-10T06:59:40;12.10;;;6.90;;
76867;SDS011;66168;45.478;11.060;2024-01-10T07:02:07;11.80;;;6.30;;
76867;SDS011;66168;45.478;11.060;2024-01-10T07:04:36;13.70;;;7.20;;
76867;SDS011;66168;45.478;11.060;2024-01-10T07:07:04;11.80;;;7.20;;
76867;SDS011;66168;45.478;11.060;2024-01-10T07:09:32;12.50;;;7.40;;
76867;SDS011;66168;45.478;11.060;2024-01-10T07:11:59;12.60;;;6.90;;
76867;SDS011;66168;45.478;11.060;2024-01-10T07:14:26;13.10;;;7.20;;
76867;SDS011;66168;45.478;11.060;2024-01-10T07:16:53;14.80;;;8.30;;
76867;SDS011;66168;45.478;11.060;2024-01-10T07:19:23;14.90;;;7.60;;
76867;SDS011;66168;45.478;11.060;2024-01-10T07:21:51;12.70;;;7.00;;
76867;SDS011;66168;45.478;11.060;2024-01-10T07:24:17;10.80;;;6.80;;
76867;SDS011;66168;45.478;11.060;2024-01-10T07:26:44;12.60;;;7.70;;
76867;SDS011;66168;45.478;11.060;2024-01-10T07:29:11;10.90;;;7.20;;
76867;SDS011;66168;45.478;11.060;2024-01-10T07:31:38;11.80;;;7.40;;
76867;SDS011;66168;45.478;11.060;2024-01-10T07:34:07;7.90;;;6.00;;
76867;SDS011;66168;45.478;11.060;2024-01-10T07:36:41;11.10;;;7.00;;
76867;SDS011;66168;45.478;11.060;2024-01-10T07:39:09;10.80;;;6.00;;
76867;SDS011;66168;45.478;11.060;2024-01-10T07:41:36;10.40;;;6.20;;
76867;SDS011;66168;45.478;11.060;2024-01-10T07:44:03;12.40;;;6.90;;
76867;SDS011;66168;45.478;11.060;2024-01-10T07:46:30;11.70;;;6.50;;
76867;SDS011;66168;45.478;11.060;2024-01-10T07:48:57;12.70;;;6.80;;
76867;SDS011;66168;45.478;11.060;2024-01-10T07:51:24;9.90;;;5.70;;
76867;SDS011;66168;45.478;11.060;2024-01-10T07:53:50;12.60;;;6.80;;
76867;SDS011;66168;45.478;11.060;2024-01-10T07:56:17;11.70;;;6.90;;
76867;SDS011;66168;45.478;11.060;2024-01-10T07:58:46;11.90;;;7.10;;
76867;SDS011;66168;45.478;11.060;2024-01-10T08:01:15;15.40;;;7.20;;
76867;SDS011;66168;45.478;11.060;2024-01-10T08:03:42;10.80;;;6.40;;
76867;SDS011;66168;45.478;11.060;2024-01-10T08:06:09;11.70;;;7.30;;
76867;SDS011;66168;45.478;11.060;2024-01-10T08:08:52;10.60;;;6.70;;
76867;SDS011;66168;45.478;11.060;2024-01-10T08:11:19;8.70;;;5.70;;
76867;SDS011;66168;45.478;11.060;2024-01-10T08:13:46;11.60;;;6.90;;
76867;SDS011;66168;45.478;11.060;2024-01-10T08:16:13;12.80;;;7.90;;
76867;SDS011;66168;45.478;11.060;2024-01-10T08:18:40;14.70;;;8.20;;
76867;SDS011;66168;45.478;11.060;2024-01-10T08:21:07;17.30;;;9.80;;
76867;SDS011;66168;45.478;11.060;2024-01-10T08:23:34;18.70;;;11.30;;
76867;SDS011;66168;45.478;11.060;2024-01-10T08:26:01;13.10;;;7.60;;
76867;SDS011;66168;45.478;11.060;2024-01-10T08:28:28;13.60;;;7.00;;
76867;SDS011;66168;45.478;11.060;2024-01-10T08:30:54;11.80;;;7.30;;
76867;SDS011;66168;45.478;11.060;2024-01-10T08:33:30;14.20;;;8.50;;
76867;SDS011;66168;45.478;11.060;2024-01-10T08:35:57;15.40;;;8.70;;
76867;SDS011;66168;45.478;11.060;2024-01-10T08:38:25;12.50;;;7.20;;
76867;SDS011;66168;45.478;11.060;2024-01-10T08:40:52;12.90;;;7.90;;
76867;SDS011;66168;45.478;11.060;2024-01-10T08:43:20;14.80;;;7.40;;
76867;SDS011;66168;45.478;11.060;2024-01-10T08:45:46;12.10;;;6.80;;
76867;SDS011;66168;45.478;11.060;2024-01-10T08:48:13;10.20;;;6.50;;
76867;SDS011;66168;45.478;11.060;2024-01-10T08:50:41;10.90;;;6.60;;
76867;SDS011;66168;45.478;11.060;2024-01-10T08:53:09;10.70;;;6.00;;
76867;SDS011;66168;45.478;11.060;2024-01-10T08:55:36;12.00;;;7.50;;
76867;SDS011;66168;45.478;11.060;2024-01-10T08:58:04;10.00;;;6.90;;
76867;SDS011;66168;45.478;11.060;2024-01-10T09:00:31;13.60;;;8.10;;
76867;SDS011;66168;45.478;11.060;2024-01-10T09:02:58;10.60;;;6.90;;
76867;SDS011;66168;45.478;11.060;2024-01-10T09:05:25;13.70;;;7.40;;
76867;SDS011;66168;45.478;11.060;2024-01-10T09:07:52;10.80;;;6.70;;
76867;SDS011;66168;45.478;11.060;2024-01-10T09:10:22;10.20;;;6.40;;
76867;SDS011;66168;45.478;11.060;2024-01-10T09:12:49;10.40;;;6.90;;
76867;SDS011;66168;45.478;11.060;2024-01-10T09:15:16;10.80;;;6.70;;
76867;SDS011;66168;45.478;11.060;2024-01-10T09:17:43;14.00;;;8.30;;
76867;SDS011;66168;45.478;11.060;2024-01-10T09:20:11;10.90;;;6.80;;
76867;SDS011;66168;45.478;11.060;2024-01-10T09:22:39;13.80;;;7.70;;
76867;SDS011;66168;45.478;11.060;2024-01-10T09:25:06;10.60;;;6.20;;
76867;SDS011;66168;45.478;11.060;2024-01-10T09:27:33;14.50;;;6.80;;
76867;SDS011;66168;45.478;11.060;2024-01-10T09:30:01;9.50;;;6.10;;
76867;SDS011;66168;45.478;11.060;2024-01-10T09:32:29;8.50;;;5.60;;
76867;SDS011;66168;45.478;11.060;2024-01-10T09:34:56;15.30;;;8.40;;
76867;SDS011;66168;45.478;11.060;2024-01-10T09:37:25;12.90;;;7.50;;
76867;SDS011;66168;45.478;11.060;2024-01-10T09:39:51;13.20;;;7.50;;
76867;SDS011;66168;45.478;11.060;2024-01-10T09:42:19;17.30;;;10.40;;
76867;SDS011;66168;45.478;11.060;2024-01-10T09:44:52;18.10;;;9.80;;
76867;SDS011;66168;45.478;11.060;2024-01-10T09:47:20;14.80;;;7.80;;
76867;SDS011;66168;45.478;11.060;2024-01-10T09:49:47;14.90;;;7.50;;
76867;SDS011;66168;45.478;11.060;2024-01-10T09:52:25;8.90;;;6.30;;
76867;SDS011;66168;45.478;11.060;2024-01-10T09:54:55;11.40;;;6.30;;
76867;SDS011;66168;45.478;11.060;2024-01-10T09:57:23;9.40;;;5.50;;
76867;SDS011;66168;45.478;11.060;2024-01-10T09:59:52;8.80;;;5.80;;
76867;SDS011;66168;45.478;11.060;2024-01-10T10:02:21;8.60;;;5.60;;
76867;SDS011;66168;45.478;11.060;2024-01-10T10:05:03;10.20;;;6.80;;
76867;SDS011;66168;45.478;11.060;2024-01-10T10:07:47;12.40;;;6.70;;
76867;SDS011;66168;45.478;11.060;2024-01-10T10:10:16;11.30;;;6.80;;
76867;SDS011;66168;45.478;11.060;2024-01-10T10:12:44;8.80;;;4.80;;
76867;SDS011;66168;45.478;11.060;2024-01-10T10:15:14;4.80;;;3.00;;
76867;SDS011;66168;45.478;11.060;2024-01-10T10:17:43;7.30;;;3.90;;
76867;SDS011;66168;45.478;11.060;2024-01-10T10:25:28;10.60;;;4.80;;
76867;SDS011;66168;45.478;11.060;2024-01-10T10:27:58;8.10;;;4.20;;
76867;SDS011;66168;45.478;11.060;2024-01-10T10:30:26;6.60;;;4.50;;
76867;SDS011;66168;45.478;11.060;2024-01-10T10:32:54;5.80;;;3.70;;
76867;SDS011;66168;45.478;11.060;2024-01-10T10:35:22;6.50;;;4.40;;
76867;SDS011;66168;45.478;11.060;2024-01-10T10:38:03;7.10;;;4.30;;
76867;SDS011;66168;45.478;11.060;2024-01-10T10:40:30;6.90;;;4.00;;
76867;SDS011;66168;45.478;11.060;2024-01-10T10:42:57;4.90;;;3.50;;
76867;SDS011;66168;45.478;11.060;2024-01-10T10:45:24;7.10;;;4.40;;
76867;SDS011;66168;45.478;11.060;2024-01-10T10:47:57;8.00;;;5.60;;
76867;SDS011;66168;45.478;11.060;2024-01-10T10:50:32;7.30;;;5.10;;
76867;SDS011;66168;45.478;11.060;2024-01-10T10:53:02;5.30;;;3.80;;
76867;SDS011;66168;45.478;11.060;2024-01-10T10:55:31;6.10;;;4.00;;
76867;SDS011;66168;45.478;11.060;2024-01-10T10:58:01;6.30;;;4.90;;
76867;SDS011;66168;45.478;11.060;2024-01-10T11:00:36;7.20;;;4.50;;
76867;SDS011;66168;45.478;11.060;2024-01-10T11:03:04;7.70;;;4.20;;
76867;SDS011;66168;45.478;11.060;2024-01-10T11:05:32;6.70;;;4.00;;
76867;SDS011;66168;45.478;11.060;2024-01-10T11:08:02;5.90;;;3.70;;
76867;SDS011;66168;45.478;11.060;2024-01-10T11:10:32;5.40;;;3.80;;
76867;SDS011;66168;45.478;11.060;2024-01-10T11:24:14;6.60;;;4.10;;
76867;SDS011;66168;45.478;11.060;2024-01-10T11:26:41;7.40;;;4.80;;
76867;SDS011;66168;45.478;11.060;2024-01-10T11:29:08;7.90;;;5.30;;
76867;SDS011;66168;45.478;11.060;2024-01-10T11:31:36;8.80;;;5.00;;
76867;SDS011;66168;45.478;11.060;2024-01-10T11:34:05;7.70;;;5.00;;
76867;SDS011;66168;45.478;11.060;2024-01-10T11:36:32;4.20;;;2.80;;
76867;SDS011;66168;45.478;11.060;2024-01-10T11:38:59;7.80;;;4.80;;
76867;SDS011;66168;45.478;11.060;2024-01-10T11:41:38;7.70;;;3.80;;
76867;SDS011;66168;45.478;11.060;2024-01-10T11:49:13;6.50;;;4.50;;
76867;SDS011;66168;45.478;11.060;2024-01-10T11:51:42;6.80;;;4.50;;
76867;SDS011;66168;45.478;11.060;2024-01-10T11:57:07;6.30;;;4.10;;
76867;SDS011;66168;45.478;11.060;2024-01-10T11:59:57;6.70;;;4.30;;
76867;SDS011;66168;45.478;11.060;2024-01-10T12:02:30;6.30;;;3.90;;
76867;SDS011;66168;45.478;11.060;2024-01-10T12:04:57;6.20;;;3.90;;
76867;SDS011;66168;45.478;11.060;2024-01-10T12:07:24;7.00;;;4.20;;
76867;SDS011;66168;45.478;11.060;2024-01-10T12:09:52;6.20;;;3.40;;
76867;SDS011;66168;45.478;11.060;2024-01-10T12:12:19;6.00;;;3.40;;
76867;SDS011;66168;45.478;11.060;2024-01-10T12:14:46;6.90;;;4.30;;
76867;SDS011;66168;45.478;11.060;2024-01-10T12:17:13;4.40;;;2.90;;
76867;SDS011;66168;45.478;11.060;2024-01-10T12:19:41;6.00;;;3.90;;
76867;SDS011;66168;45.478;11.060;2024-01-10T12:22:13;6.50;;;3.90;;
76867;SDS011;66168;45.478;11.060;2024-01-10T12:24:43;7.30;;;3.30;;
76867;SDS011;66168;45.478;11.060;2024-01-10T12:27:18;7.30;;;4.90;;
76867;SDS011;66168;45.478;11.060;2024-01-10T12:29:49;3.70;;;2.60;;
76867;SDS011;66168;45.478;11.060;2024-01-10T12:32:18;9.10;;;4.50;;
76867;SDS011;66168;45.478;11.060;2024-01-10T12:34:47;9.20;;;5.10;;
76867;SDS011;66168;45.478;11.060;2024-01-10T12:37:14;6.60;;;3.80;;
76867;SDS011;66168;45.478;11.060;2024-01-10T12:39:41;7.30;;;4.90;;
76867;SDS011;66168;45.478;11.060;2024-01-10T12:42:08;5.10;;;3.10;;
76867;SDS011;66168;45.478;11.060;2024-01-10T12:44:36;6.50;;;4.30;;
76867;SDS011;66168;45.478;11.060;2024-01-10T12:47:03;7.30;;;4.40;;
76867;SDS011;66168;45.478;11.060;2024-01-10T12:49:30;16.00;;;9.20;;
76867;SDS011;66168;45.478;11.060;2024-01-10T12:51:57;9.40;;;5.10;;
76867;SDS011;66168;45.478;11.060;2024-01-10T12:54:24;8.40;;;5.60;;
76867;SDS011;66168;45.478;11.060;2024-01-10T12:56:51;8.10;;;4.40;;
76867;SDS011;66168;45.478;11.060;2024-01-10T12:59:19;7.10;;;4.20;;
76867;SDS011;66168;45.478;11.060;2024-01-10T13:01:46;6.80;;;3.90;;
76867;SDS011;66168;45.478;11.060;2024-01-10T13:04:13;9.40;;;5.30;;
76867;SDS011;66168;45.478;11.060;2024-01-10T13:06:40;8.40;;;4.30;;
76867;SDS011;66168;45.478;11.060;2024-01-10T13:09:07;5.80;;;4.10;;
76867;SDS011;66168;45.478;11.060;2024-01-10T13:11:34;7.50;;;4.80;;
76867;SDS011;66168;45.478;11.060;2024-01-10T13:14:01;6.20;;;3.00;;
76867;SDS011;66168;45.478;11.060;2024-01-10T13:16:28;6.90;;;4.30;;
76867;SDS011;66168;45.478;11.060;2024-01-10T13:19:02;11.30;;;4.90;;
76867;SDS011;66168;45.478;11.060;2024-01-10T13:21:29;6.30;;;3.50;;
76867;SDS011;66168;45.478;11.060;2024-01-10T13:23:56;7.10;;;4.40;;
76867;SDS011;66168;45.478;11.060;2024-01-10T13:26:23;6.70;;;4.50;;
76867;SDS011;66168;45.478;11.060;2024-01-10T13:28:50;6.10;;;3.80;;
76867;SDS011;66168;45.478;11.060;2024-01-10T13:31:17;9.00;;;4.70;;
76867;SDS011;66168;45.478;11.060;2024-01-10T13:33:44;8.90;;;4.70;;
76867;SDS011;66168;45.478;11.060;2024-01-10T13:36:13;8.40;;;4.90;;
76867;SDS011;66168;45.478;11.060;2024-01-10T13:38:41;6.30;;;4.00;;
76867;SDS011;66168;45.478;11.060;2024-01-10T13:41:08;6.80;;;3.80;;
76867;SDS011;66168;45.478;11.060;2024-01-10T13:43:35;6.50;;;4.10;;
76867;SDS011;66168;45.478;11.060;2024-01-10T13:46:03;6.00;;;3.60;;
76867;SDS011;66168;45.478;11.060;2024-01-10T13:48:35;6.50;;;3.70;;
76867;SDS011;66168;45.478;11.060;2024-01-10T13:51:02;8.70;;;4.40;;
76867;SDS011;66168;45.478;11.060;2024-01-10T13:53:29;5.20;;;3.80;;
76867;SDS011;66168;45.478;11.060;2024-01-10T13:55:57;5.30;;;3.90;;
76867;SDS011;66168;45.478;11.060;2024-01-10T13:58:24;10.10;;;4.40;;
76867;SDS011;66168;45.478;11.060;2024-01-10T14:00:51;6.70;;;4.00;;
76867;SDS011;66168;45.478;11.060;2024-01-10T14:03:18;7.00;;;4.90;;
76867;SDS011;66168;45.478;11.060;2024-01-10T14:05:45;7.00;;;4.50;;
76867;SDS011;66168;45.478;11.060;2024-01-10T14:08:12;6.30;;;3.70;;
76867;SDS011;66168;45.478;11.060;2024-01-10T14:10:39;5.40;;;3.40;;
76867;SDS011;66168;45.478;11.060;2024-01-10T14:13:09;7.60;;;3.40;;
76867;SDS011;66168;45.478;11.060;2024-01-10T14:15:36;4.80;;;3.20;;
76867;SDS011;66168;45.478;11.060;2024-01-10T14:18:03;3.60;;;2.60;;
76867;SDS011;66168;45.478;11.060;2024-01-10T14:20:31;5.10;;;3.40;;
76867;SDS011;66168;45.478;11.060;2024-01-10T14:22:59;5.00;;;2.40;;
76867;SDS011;66168;45.478;11.060;2024-01-10T14:25:27;5.10;;;3.40;;
76867;SDS011;66168;45.478;11.060;2024-01-10T14:27:55;5.90;;;3.80;;
76867;SDS011;66168;45.478;11.060;2024-01-10T14:30:22;5.60;;;4.00;;
76867;SDS011;66168;45.478;11.060;2024-01-10T14:32:51;6.50;;;4.10;;
76867;SDS011;66168;45.478;11.060;2024-01-10T14:35:19;5.50;;;3.60;;
76867;SDS011;66168;45.478;11.060;2024-01-10T14:37:46;8.10;;;3.80;;
76867;SDS011;66168;45.478;11.060;2024-01-10T14:40:13;6.80;;;4.10;;
76867;SDS011;66168;45.478;11.060;2024-01-10T14:42:40;6.40;;;3.70;;
76867;SDS011;66168;45.478;11.060;2024-01-10T14:45:07;5.80;;;3.80;;
76867;SDS011;66168;45.478;11.060;2024-01-10T14:47:35;7.30;;;4.00;;
76867;SDS011;66168;45.478;11.060;2024-01-10T14:50:02;8.70;;;4.30;;
76867;SDS011;66168;45.478;11.060;2024-01-10T14:52:30;10.00;;;4.30;;
76867;SDS011;66168;45.478;11.060;2024-01-10T14:54:57;9.20;;;4.90;;
76867;SDS011;66168;45.478;11.060;2024-01-10T14:57:24;6.40;;;3.80;;
76867;SDS011;66168;45.478;11.060;2024-01-10T14:59:50;9.40;;;5.20;;
76867;SDS011;66168;45.478;11.060;2024-01-10T15:02:17;8.80;;;5.10;;